Darstellungsparameter: Aktuell verwendete Einstellungen:
Skalierung der Graphiken ... ?
xyx+y,   Skalierungsfaktor:      Skalierung: Modus: x, Faktor: 1
Darstellungszeitraum ... ?
Vom - - bis: - -   Zeitraum: 21.02.2021 - 21.02.2021
Min/Max/Avg-Anzeige ... ?
Zeige MMA aktuell
Zeige MMA Monat
Zeige MMA alles
Zeige --A aktuell
Zeige --A Monat
Zeige --A alles
Keine MMA-Anzeige
MMA:
Keine MMA-Graphiken
MMA-Basis: 21.02.2021 - 21.02.2021
Quicknavigation für Darstellung... ?
Tage:      1T, 2T, 3T, 5T -1T -2T -3T -5T +1T +2T +3T +5T
Wochen: 1W, 2W, 3W -1W -2W -3W +1W +2W +3W
Monate: 1M, 3M, 6M -1M -3M -6M +1M +3M +6M
Jahre:    1J, 3J, 5J, 10J -1J -3J -5J -10J +1J +3J +5J +10J
Nutze für die Darstellung ... ?
Originaldaten oder Mittelwerte auf ...
Stundenbasis Tagesbasis Wochenbasis
Monatsbasis Jahresbasis      Datenbasis: Original-Daten
Darstellen als:
Statistik (Auto) Statistik J:M      Darstellung:
Zur Graphik,    zurück zur Übersicht aller Sensoren.
 
Tabellarische Datenbersicht: ?
 
Sensor: Nr:Datum:Temp:Feuchte:Taupunkt:
Aussen-T/F 1 21-02-2021 00:00:00 5.3 C 93 % 4.26 C
2 21-02-2021 00:05:00 5.2 C 93 % 4.16 C
3 21-02-2021 00:10:00 5 C 93 % 3.96 C
4 21-02-2021 00:15:00 4.8 C 92 % 3.61 C
5 21-02-2021 00:20:00 4.7 C 93 % 3.67 C
6 21-02-2021 00:25:00 4.6 C 93 % 3.57 C
7 21-02-2021 00:30:00 4.4 C 93 % 3.37 C
8 21-02-2021 00:35:00 4.3 C 93 % 3.27 C
9 21-02-2021 00:40:00 4.2 C 93 % 3.17 C
10 21-02-2021 00:45:00 4.1 C 93 % 3.07 C
11 21-02-2021 00:50:00 3.9 C 93 % 2.87 C
12 21-02-2021 00:55:00 3.9 C 93 % 2.87 C
13 21-02-2021 01:00:00 3.8 C 93 % 2.77 C
14 21-02-2021 01:05:00 3.8 C 94 % 2.93 C
15 21-02-2021 01:10:00 3.8 C 94 % 2.93 C
16 21-02-2021 01:15:00 3.6 C 94 % 2.73 C
17 21-02-2021 01:20:00 3.6 C 94 % 2.73 C
18 21-02-2021 01:25:00 3.4 C 94 % 2.53 C
19 21-02-2021 01:30:00 3.3 C 94 % 2.43 C
20 21-02-2021 01:35:00 3.4 C 94 % 2.53 C
21 21-02-2021 01:40:00 3.4 C 95 % 2.68 C
22 21-02-2021 01:45:00 3.5 C 95 % 2.78 C
23 21-02-2021 01:50:00 3.5 C 95 % 2.78 C
24 21-02-2021 01:55:00 3.4 C 94 % 2.53 C
25 21-02-2021 02:00:00 3.4 C 94 % 2.53 C
Sensor: Nr:Datum:Temp:Feuchte:Taupunkt:
Aussen-T/F 26 21-02-2021 02:05:00 3.3 C 94 % 2.43 C
27 21-02-2021 02:10:00 3.3 C 95 % 2.58 C
28 21-02-2021 02:15:00 3.2 C 95 % 2.48 C
29 21-02-2021 02:20:00 3.2 C 95 % 2.48 C
30 21-02-2021 02:25:00 3.1 C 94 % 2.23 C
31 21-02-2021 02:30:00 3.1 C 95 % 2.38 C
32 21-02-2021 02:35:00 3.2 C 95 % 2.48 C
33 21-02-2021 02:40:00 3.3 C 95 % 2.58 C
34 21-02-2021 02:45:00 3.3 C 95 % 2.58 C
35 21-02-2021 02:50:00 3.4 C 95 % 2.68 C
36 21-02-2021 02:55:00 3.5 C 96 % 2.92 C
37 21-02-2021 03:00:00 3.5 C 95 % 2.78 C
38 21-02-2021 03:05:00 3.3 C 95 % 2.58 C
39 21-02-2021 03:10:00 3.2 C 95 % 2.48 C
40 21-02-2021 03:15:00 2.9 C 95 % 2.18 C
41 21-02-2021 03:20:00 2.8 C 95 % 2.08 C
42 21-02-2021 03:25:00 3.1 C 95 % 2.38 C
43 21-02-2021 03:30:00 3.2 C 95 % 2.48 C
44 21-02-2021 03:35:00 3.1 C 95 % 2.38 C
45 21-02-2021 03:40:00 3 C 95 % 2.28 C
46 21-02-2021 03:45:00 2.9 C 95 % 2.18 C
47 21-02-2021 03:50:00 2.8 C 95 % 2.08 C
48 21-02-2021 03:55:00 2.7 C 95 % 1.98 C
49 21-02-2021 04:00:00 2.6 C 95 % 1.88 C
50 21-02-2021 04:05:00 2.4 C 95 % 1.68 C
Sensor: Nr:Datum:Temp:Feuchte:Taupunkt:
Aussen-T/F 51 21-02-2021 04:10:00 2.4 C 95 % 1.68 C
52 21-02-2021 04:15:00 2.3 C 95 % 1.58 C
53 21-02-2021 04:20:00 2.1 C 95 % 1.38 C
54 21-02-2021 04:25:00 2.1 C 95 % 1.38 C
55 21-02-2021 04:30:00 2.1 C 95 % 1.38 C
56 21-02-2021 04:35:00 2.1 C 95 % 1.38 C
57 21-02-2021 04:40:00 2.3 C 96 % 1.73 C
58 21-02-2021 04:45:00 2.4 C 96 % 1.83 C
59 21-02-2021 04:50:00 2.6 C 96 % 2.03 C
60 21-02-2021 04:55:00 2.5 C 96 % 1.93 C
61 21-02-2021 05:00:00 2.4 C 96 % 1.83 C
62 21-02-2021 05:05:00 2.4 C 95 % 1.68 C
63 21-02-2021 05:10:00 2.3 C 95 % 1.58 C
64 21-02-2021 05:15:00 2.2 C 95 % 1.48 C
65 21-02-2021 05:20:00 2.1 C 95 % 1.38 C
66 21-02-2021 05:25:00 1.9 C 95 % 1.19 C
67 21-02-2021 05:30:00 1.9 C 96 % 1.33 C
68 21-02-2021 05:35:00 1.9 C 96 % 1.33 C
69 21-02-2021 05:40:00 1.9 C 96 % 1.33 C
70 21-02-2021 05:45:00 1.9 C 96 % 1.33 C
71 21-02-2021 05:50:00 1.8 C 96 % 1.23 C
72 21-02-2021 05:55:00 1.9 C 96 % 1.33 C
73 21-02-2021 06:00:00 1.9 C 96 % 1.33 C
74 21-02-2021 06:05:00 1.9 C 96 % 1.33 C
75 21-02-2021 06:10:00 1.9 C 96 % 1.33 C
Sensor: Nr:Datum:Temp:Feuchte:Taupunkt:
Aussen-T/F 76 21-02-2021 06:15:00 1.9 C 96 % 1.33 C
77 21-02-2021 06:20:00 1.9 C 96 % 1.33 C
78 21-02-2021 06:25:00 1.9 C 96 % 1.33 C
79 21-02-2021 06:30:00 1.8 C 96 % 1.23 C
80 21-02-2021 06:35:00 1.7 C 96 % 1.13 C
81 21-02-2021 06:40:00 1.5 C 96 % 0.93 C
82 21-02-2021 06:45:00 1.4 C 96 % 0.83 C
83 21-02-2021 06:50:00 1.4 C 96 % 0.83 C
84 21-02-2021 06:55:00 1.3 C 96 % 0.73 C
85 21-02-2021 07:00:00 1.3 C 96 % 0.73 C
86 21-02-2021 07:05:00 1.3 C 96 % 0.73 C
87 21-02-2021 07:10:00 1.2 C 96 % 0.63 C
88 21-02-2021 07:15:00 1.2 C 96 % 0.63 C
89 21-02-2021 07:20:00 1.2 C 96 % 0.63 C
90 21-02-2021 07:25:00 1.2 C 96 % 0.63 C
91 21-02-2021 07:30:00 1.2 C 96 % 0.63 C
92 21-02-2021 07:35:00 1.2 C 96 % 0.63 C
93 21-02-2021 07:40:00 1.2 C 96 % 0.63 C
94 21-02-2021 07:45:00 1.1 C 96 % 0.54 C
95 21-02-2021 07:50:00 1.1 C 96 % 0.54 C
96 21-02-2021 07:55:00 1.1 C 96 % 0.54 C
97 21-02-2021 08:00:00 1.1 C 96 % 0.54 C
98 21-02-2021 08:05:00 1.2 C 96 % 0.63 C
99 21-02-2021 08:10:00 1.2 C 96 % 0.63 C
100 21-02-2021 08:15:00 1.2 C 96 % 0.63 C
Sensor: Nr:Datum:Temp:Feuchte:Taupunkt:
Aussen-T/F 101 21-02-2021 08:20:00 1.2 C 96 % 0.63 C
102 21-02-2021 08:25:00 1.2 C 96 % 0.63 C
103 21-02-2021 08:30:00 1.2 C 96 % 0.63 C
104 21-02-2021 08:35:00 1.2 C 96 % 0.63 C
105 21-02-2021 08:40:00 1.2 C 96 % 0.63 C
106 21-02-2021 08:45:00 1.3 C 96 % 0.73 C
107 21-02-2021 08:50:00 1.3 C 96 % 0.73 C
108 21-02-2021 08:55:00 1.3 C 96 % 0.73 C
109 21-02-2021 09:00:00 1.3 C 96 % 0.73 C
110 21-02-2021 09:05:00 1.4 C 96 % 0.83 C
111 21-02-2021 09:10:00 1.6 C 97 % 1.18 C
112 21-02-2021 09:15:00 1.7 C 96 % 1.13 C
113 21-02-2021 09:20:00 1.7 C 96 % 1.13 C
114 21-02-2021 09:25:00 1.9 C 97 % 1.48 C
115 21-02-2021 09:30:00 2.1 C 97 % 1.67 C
116 21-02-2021 09:35:00 2.2 C 97 % 1.77 C
117 21-02-2021 09:40:00 2.3 C 97 % 1.87 C
118 21-02-2021 09:45:00 2.5 C 97 % 2.07 C
119 21-02-2021 09:50:00 2.7 C 97 % 2.27 C
120 21-02-2021 09:55:00 2.8 C 97 % 2.37 C
121 21-02-2021 10:00:00 2.9 C 97 % 2.47 C
122 21-02-2021 10:05:00 3.1 C 97 % 2.67 C
123 21-02-2021 10:10:00 3.2 C 97 % 2.77 C
124 21-02-2021 10:15:00 3.3 C 97 % 2.87 C
125 21-02-2021 10:20:00 3.5 C 97 % 3.07 C
Sensor: Nr:Datum:Temp:Feuchte:Taupunkt:
Aussen-T/F 126 21-02-2021 10:25:00 3.7 C 97 % 3.27 C
127 21-02-2021 10:30:00 3.8 C 97 % 3.37 C
128 21-02-2021 10:35:00 4.1 C 97 % 3.67 C
129 21-02-2021 10:40:00 4.4 C 97 % 3.97 C
130 21-02-2021 10:45:00 4.7 C 97 % 4.27 C
131 21-02-2021 10:50:00 5.1 C 98 % 4.81 C
132 21-02-2021 10:55:00 5.3 C 98 % 5.01 C
133 21-02-2021 11:00:00 5.8 C 98 % 5.51 C
134 21-02-2021 11:05:00 6.2 C 98 % 5.91 C
135 21-02-2021 11:10:00 6.4 C 98 % 6.11 C
136 21-02-2021 11:15:00 6.6 C 98 % 6.31 C
137 21-02-2021 11:20:00 6.8 C 98 % 6.51 C
138 21-02-2021 11:25:00 7.1 C 98 % 6.81 C
139 21-02-2021 11:30:00 7.3 C 98 % 7.01 C
140 21-02-2021 11:35:00 7.6 C 98 % 7.3 C
141 21-02-2021 11:40:00 7.9 C 98 % 7.6 C
142 21-02-2021 11:45:00 8.2 C 98 % 7.9 C
143 21-02-2021 11:50:00 8.4 C 98 % 8.1 C
144 21-02-2021 11:55:00 8.6 C 98 % 8.3 C
145 21-02-2021 12:00:00 8.9 C 98 % 8.6 C
146 21-02-2021 12:05:00 9.2 C 97 % 8.75 C
147 21-02-2021 12:10:00 9.4 C 97 % 8.95 C
148 21-02-2021 12:15:00 9.9 C 93 % 8.82 C
149 21-02-2021 12:20:00 10.5 C 92 % 9.26 C
150 21-02-2021 12:25:00 11.1 C 87 % 9.02 C
Sensor: Nr:Datum:Temp:Feuchte:Taupunkt:
Aussen-T/F 151 21-02-2021 12:30:00 11.7 C 86 % 9.44 C
152 21-02-2021 12:35:00 12.3 C 85 % 9.85 C
153 21-02-2021 12:40:00 12.8 C 78 % 9.06 C
154 21-02-2021 12:45:00 13.3 C 75 % 8.97 C
155 21-02-2021 12:50:00 13.8 C 69 % 8.22 C
156 21-02-2021 12:55:00 14.2 C 68 % 8.39 C
157 21-02-2021 13:00:00 14.6 C 68 % 8.77 C
158 21-02-2021 13:05:00 14.8 C 65 % 8.29 C
159 21-02-2021 13:10:00 15.2 C 63 % 8.21 C
160 21-02-2021 13:15:00 15.4 C 59 % 7.44 C
161 21-02-2021 13:20:00 15.8 C 58 % 7.56 C
162 21-02-2021 13:25:00 15.9 C 57 % 7.4 C
163 21-02-2021 13:30:00 16 C 58 % 7.75 C
164 21-02-2021 13:35:00 16.2 C 56 % 7.42 C
165 21-02-2021 13:40:00 16.3 C 55 % 7.25 C
166 21-02-2021 13:45:00 16.5 C 54 % 7.17 C
167 21-02-2021 13:50:00 16.7 C 57 % 8.15 C
168 21-02-2021 13:55:00 16.8 C 58 % 8.5 C
169 21-02-2021 14:00:00 17 C 54 % 7.63 C
170 21-02-2021 14:05:00 17.2 C 51 % 6.98 C
171 21-02-2021 14:10:00 17.6 C 53 % 7.92 C
172 21-02-2021 14:15:00 17.7 C 54 % 8.28 C
173 21-02-2021 14:20:00 17.8 C 49 % 6.95 C
174 21-02-2021 14:25:00 17.8 C 47 % 6.35 C
175 21-02-2021 14:30:00 18.1 C 48 % 6.93 C
Sensor: Nr:Datum:Temp:Feuchte:Taupunkt:
Aussen-T/F 176 21-02-2021 14:35:00 18.2 C 45 % 6.08 C
177 21-02-2021 14:40:00 18.3 C 47 % 6.8 C
178 21-02-2021 14:45:00 18.4 C 49 % 7.5 C
179 21-02-2021 14:50:00 18.4 C 42 % 5.27 C
180 21-02-2021 14:55:00 18.5 C 47 % 6.99 C
181 21-02-2021 15:00:00 18.3 C 48 % 7.11 C
182 21-02-2021 15:05:00 18.1 C 48 % 6.93 C
183 21-02-2021 15:10:00 17.8 C 48 % 6.65 C
184 21-02-2021 15:15:00 17.8 C 48 % 6.65 C
185 21-02-2021 15:20:00 17.7 C 49 % 6.86 C
186 21-02-2021 15:25:00 17.4 C 50 % 6.88 C
187 21-02-2021 15:30:00 17.3 C 53 % 7.64 C
188 21-02-2021 15:35:00 17.2 C 49 % 6.4 C
189 21-02-2021 15:40:00 17.1 C 50 % 6.6 C
190 21-02-2021 15:45:00 17 C 53 % 7.36 C
191 21-02-2021 15:50:00 17 C 51 % 6.8 C
192 21-02-2021 15:55:00 17.1 C 54 % 7.73 C
193 21-02-2021 16:00:00 17.1 C 52 % 7.18 C
194 21-02-2021 16:05:00 17.1 C 52 % 7.18 C
195 21-02-2021 16:10:00 17 C 53 % 7.36 C
196 21-02-2021 16:15:00 16.9 C 53 % 7.27 C
197 21-02-2021 16:20:00 16.8 C 55 % 7.72 C
198 21-02-2021 16:25:00 16.6 C 54 % 7.26 C
199 21-02-2021 16:30:00 16.5 C 53 % 6.9 C
200 21-02-2021 16:35:00 16.4 C 54 % 7.08 C
Sensor: Nr:Datum:Temp:Feuchte:Taupunkt:
Aussen-T/F 201 21-02-2021 16:40:00 16.3 C 56 % 7.52 C
202 21-02-2021 16:45:00 16.3 C 56 % 7.52 C
203 21-02-2021 16:50:00 16.1 C 57 % 7.59 C
204 21-02-2021 16:55:00 16 C 56 % 7.24 C
205 21-02-2021 17:00:00 15.8 C 57 % 7.31 C
206 21-02-2021 17:05:00 15.7 C 58 % 7.47 C
207 21-02-2021 17:10:00 15.6 C 59 % 7.62 C
208 21-02-2021 17:15:00 15.5 C 59 % 7.53 C
209 21-02-2021 17:20:00 15.3 C 59 % 7.34 C
210 21-02-2021 17:25:00 15.2 C 59 % 7.25 C
211 21-02-2021 17:30:00 15.2 C 59 % 7.25 C
212 21-02-2021 17:35:00 15 C 60 % 7.31 C
213 21-02-2021 17:40:00 14.8 C 60 % 7.12 C
214 21-02-2021 17:45:00 14.6 C 62 % 7.41 C
215 21-02-2021 17:50:00 14.2 C 63 % 7.27 C
216 21-02-2021 17:55:00 13.8 C 64 % 7.12 C
217 21-02-2021 18:00:00 13.3 C 66 % 7.09 C
218 21-02-2021 18:05:00 12.9 C 67 % 6.93 C
219 21-02-2021 18:10:00 12.5 C 68 % 6.76 C
220 21-02-2021 18:15:00 12.2 C 70 % 6.9 C
221 21-02-2021 18:20:00 11.9 C 71 % 6.82 C
222 21-02-2021 18:25:00 11.7 C 72 % 6.83 C
223 21-02-2021 18:30:00 11.5 C 72 % 6.63 C
224 21-02-2021 18:35:00 11.4 C 73 % 6.74 C
225 21-02-2021 18:40:00 11.3 C 73 % 6.64 C
Sensor: Nr:Datum:Temp:Feuchte:Taupunkt:
Aussen-T/F 226 21-02-2021 18:45:00 11.4 C 71 % 6.34 C
227 21-02-2021 18:50:00 11.6 C 72 % 6.73 C
228 21-02-2021 18:55:00 11.8 C 72 % 6.92 C
229 21-02-2021 19:00:00 11.8 C 71 % 6.72 C
230 21-02-2021 19:05:00 11.8 C 72 % 6.92 C
231 21-02-2021 19:10:00 11.8 C 72 % 6.92 C
232 21-02-2021 19:15:00 11.8 C 72 % 6.92 C
233 21-02-2021 19:20:00 11.8 C 72 % 6.92 C
234 21-02-2021 19:25:00 11.8 C 73 % 7.12 C
235 21-02-2021 19:30:00 11.8 C 72 % 6.92 C
236 21-02-2021 19:35:00 11.7 C 72 % 6.83 C
237 21-02-2021 19:40:00 11.7 C 72 % 6.83 C
238 21-02-2021 19:45:00 11.7 C 72 % 6.83 C
239 21-02-2021 19:50:00 11.7 C 72 % 6.83 C
240 21-02-2021 19:55:00 11.7 C 73 % 7.03 C
241 21-02-2021 20:00:00 11.4 C 73 % 6.74 C
242 21-02-2021 20:05:00 11.2 C 74 % 6.74 C
243 21-02-2021 20:10:00 11.1 C 73 % 6.45 C
244 21-02-2021 20:15:00 11.2 C 73 % 6.55 C
245 21-02-2021 20:20:00 11.2 C 74 % 6.74 C
246 21-02-2021 20:25:00 11.2 C 74 % 6.74 C
247 21-02-2021 20:30:00 11 C 74 % 6.55 C
248 21-02-2021 20:35:00 10.8 C 75 % 6.55 C
249 21-02-2021 20:40:00 10.6 C 76 % 6.55 C
250 21-02-2021 20:45:00 10.3 C 76 % 6.26 C
Sensor: Nr:Datum:Temp:Feuchte:Taupunkt:
Aussen-T/F 251 21-02-2021 20:50:00 10.1 C 77 % 6.26 C
252 21-02-2021 20:55:00 9.9 C 77 % 6.06 C
253 21-02-2021 21:00:00 9.7 C 78 % 6.06 C
254 21-02-2021 21:05:00 9.4 C 78 % 5.76 C
255 21-02-2021 21:10:00 9.3 C 78 % 5.67 C
256 21-02-2021 21:15:00 9.1 C 78 % 5.47 C
257 21-02-2021 21:20:00 8.9 C 78 % 5.28 C
258 21-02-2021 21:25:00 8.7 C 79 % 5.27 C
259 21-02-2021 21:30:00 8.6 C 80 % 5.35 C
260 21-02-2021 21:35:00 8.3 C 80 % 5.06 C
261 21-02-2021 21:40:00 8.2 C 80 % 4.96 C
262 21-02-2021 21:45:00 8 C 81 % 4.94 C
263 21-02-2021 21:50:00 7.8 C 82 % 4.92 C
264 21-02-2021 21:55:00 7.6 C 82 % 4.73 C
265 21-02-2021 22:00:00 7.3 C 82 % 4.44 C
266 21-02-2021 22:05:00 7.2 C 84 % 4.68 C
267 21-02-2021 22:10:00 7 C 85 % 4.66 C
268 21-02-2021 22:15:00 6.8 C 84 % 4.29 C
269 21-02-2021 22:20:00 6.6 C 84 % 4.1 C
270 21-02-2021 22:25:00 6.5 C 85 % 4.17 C
271 21-02-2021 22:30:00 6.3 C 86 % 4.14 C
272 21-02-2021 22:35:00 6.3 C 87 % 4.3 C
273 21-02-2021 22:40:00 6.3 C 88 % 4.46 C
274 21-02-2021 22:45:00 6.2 C 88 % 4.36 C
275 21-02-2021 22:50:00 6.1 C 88 % 4.27 C
Sensor: Nr:Datum:Temp:Feuchte:Taupunkt:
Aussen-T/F 276 21-02-2021 22:55:00 6.1 C 87 % 4.1 C
277 21-02-2021 23:00:00 5.9 C 88 % 4.07 C
278 21-02-2021 23:05:00 5.9 C 88 % 4.07 C
279 21-02-2021 23:10:00 5.8 C 88 % 3.97 C
280 21-02-2021 23:15:00 5.7 C 89 % 4.03 C
281 21-02-2021 23:20:00 5.7 C 89 % 4.03 C
282 21-02-2021 23:25:00 5.6 C 88 % 3.77 C
283 21-02-2021 23:30:00 5.3 C 87 % 3.32 C
284 21-02-2021 23:35:00 5.2 C 89 % 3.54 C
285 21-02-2021 23:40:00 5.1 C 89 % 3.44 C
286 21-02-2021 23:45:00 4.9 C 89 % 3.24 C
287 21-02-2021 23:50:00 4.9 C 90 % 3.4 C
288 21-02-2021 23:55:00 4.8 C 90 % 3.3 C

Legende:
   Min
   Max


Maximal/Minimal-Werte vom 21.02.2021 - 21.02.2021

Sensor Min Max Avg
Temp
(Aussen-T/F)
1.1 °C
21-02-2021  07:45:00
18.5 °C
21-02-2021  14:55:00
7.73 °C
Feuchte
(Aussen-T/F)
42 %
21-02-2021  14:50:00
98 %
21-02-2021  10:50:00
82.35 %
Taupunkt
(Aussen-T/F)
0.54 C
21-02-2021  07:45:00
9.85 C
21-02-2021  12:35:00
4.46 C

Die Daten stammen von einer Davis Vantage Pro 2 Wetter-Station und werden unter Linux mit der Software wview2wettercgi und aufbereitet. Alle Angaben erfolgen ohne Gewähr für ihre Vollständigkeit oder Richtigkeit.
Kontakt: Rainer Krienke krienke@uni-koblenz.de . Meine Webseiten an der Uni Koblenz oder privat.
Version: $Revision: 0.78 $